Time;durP1;ratioP1;P1;durP2;ratioP2;P2;SDS_P1;SDS_P2;PMS_P1;PMS_P2;Temp;Humidity;BMP_temperature;BMP_pressure;BME280_temperature;BME280_humidity;BME280_pressure;Samples;Min_cycle;Max_cycle;Signal;HPM_P1;HPM_P2
2022/05/29 00:01:58;;;;;;;2.35;1.87;;;;;;;16.41;50.42;99313.55;1761212;80;21954;-64
2022/05/29 00:04:25;;;;;;;5.17;2.20;;;;;;;16.39;50.38;99309.29;1764831;80;21394;-64
2022/05/29 00:06:55;;;;;;;2.67;1.80;;;;;;;16.38;50.27;99306.28;1765441;80;21026;-65
2022/05/29 00:09:38;;;;;;;3.42;1.98;;;;;;;16.35;50.20;99303.39;1772398;80;21022;-65
2022/05/29 00:12:05;;;;;;;2.98;1.92;;;;;;;16.35;50.40;99309.53;1768515;80;21534;-63
2022/05/29 00:14:32;;;;;;;3.55;1.77;;;;;;;16.43;50.55;99312.11;1762031;80;21812;-65
2022/05/29 00:17:00;;;;;;;2.17;1.80;;;;;;;16.47;50.49;99308.28;1756741;80;21434;-65
2022/05/29 00:19:28;;;;;;;3.27;2.05;;;;;;;16.43;50.54;99314.77;1767032;80;21446;-63
2022/05/29 00:21:55;;;;;;;7.45;2.55;;;;;;;16.43;50.61;99306.32;1760508;80;21412;-63
2022/05/29 00:24:22;;;;;;;4.78;2.25;;;;;;;16.38;50.58;99307.13;1739315;80;21046;-63
2022/05/29 00:26:49;;;;;;;2.60;1.93;;;;;;;16.31;50.66;99308.06;1751802;80;21661;-63
2022/05/29 00:29:16;;;;;;;3.50;2.62;;;;;;;16.25;50.84;99316.44;1770536;80;22195;-63
2022/05/29 00:31:42;;;;;;;3.77;2.45;;;;;;;16.15;50.96;99314.92;1759981;80;21033;-64
2022/05/29 00:34:09;;;;;;;6.20;2.37;;;;;;;16.02;51.57;99321.22;1764958;80;21625;-63
2022/05/29 00:36:39;;;;;;;5.28;2.12;;;;;;;15.98;51.82;99309.97;1767505;80;21443;-65
2022/05/29 00:39:08;;;;;;;4.85;2.33;;;;;;;16.09;51.75;99315.37;1757414;80;21753;-65
2022/05/29 00:41:36;;;;;;;2.85;2.20;;;;;;;15.94;51.95;99307.17;1770615;80;21542;-65
2022/05/29 00:44:15;;;;;;;;;;;;;;;15.72;52.55;99307.30;1765860;80;20974;-64
2022/05/29 00:46:50;;;;;;;3.00;2.27;;;;;;;15.71;52.71;99310.08;1767732;80;20467;-65
2022/05/29 00:49:19;;;;;;;5.12;2.25;;;;;;;15.77;52.43;99309.68;1764752;80;21463;-65
2022/05/29 00:52:02;;;;;;;3.98;2.30;;;;;;;15.80;52.31;99306.80;1763533;80;21919;-65
2022/05/29 00:54:37;;;;;;;2.47;2.27;;;;;;;15.77;52.79;99321.61;1764951;80;20995;-65
2022/05/29 00:57:04;;;;;;;3.52;2.10;;;;;;;15.81;52.79;99332.36;1755076;80;21436;-65
2022/05/29 00:59:31;;;;;;;;;;;;;;;15.58;52.91;99288.39;1774651;80;20974;-65
2022/05/29 01:01:58;;;;;;;2.42;1.87;;;;;;;15.85;53.08;99334.33;1763097;80;20438;-65
2022/05/29 01:04:25;;;;;;;2.92;2.20;;;;;;;15.63;53.49;99333.59;1769940;80;21877;-65
2022/05/29 01:06:52;;;;;;;3.52;2.40;;;;;;;15.71;53.31;99328.64;1769116;80;21546;-65
2022/05/29 01:09:19;;;;;;;3.70;2.10;;;;;;;15.74;53.16;99331.09;1767025;80;20986;-64
2022/05/29 01:11:57;;;;;;;5.35;2.00;;;;;;;15.66;53.71;99326.77;1760256;80;21522;-64
2022/05/29 01:14:38;;;;;;;2.40;2.00;;;;;;;15.74;53.71;99322.65;1755083;79;21554;-64
2022/05/29 01:17:31;;;;;;;2.72;2.20;;;;;;;15.86;53.26;99332.90;1753286;80;21422;-67
2022/05/29 01:20:21;;;;;;;5.90;2.00;;;;;;;15.88;53.22;99332.31;1748621;79;21046;-65
2022/05/29 01:23:20;;;;;;;3.55;2.30;;;;;;;15.82;53.22;99328.73;1761286;79;21068;-65
2022/05/29 01:26:07;;;;;;;3.55;1.80;;;;;;;15.73;53.37;99327.59;1748170;80;20998;-65
2022/05/29 01:29:04;;;;;;;3.75;1.95;;;;;;;15.83;53.19;99326.96;1761018;80;20954;-65
2022/05/29 01:31:48;;;;;;;3.85;1.82;;;;;;;15.93;52.78;99334.14;1766931;79;21876;-65
2022/05/29 01:34:41;;;;;;;3.45;1.95;;;;;;;15.98;52.34;99343.61;1769617;80;21494;-65
2022/05/29 01:37:31;;;;;;;2.65;1.82;;;;;;;15.95;52.27;99342.87;1759177;80;21510;-64
2022/05/29 01:40:28;;;;;;;4.75;1.87;;;;;;;16.00;52.16;99349.16;1760108;80;21053;-65
2022/05/29 01:43:04;;;;;;;2.33;1.75;;;;;;;15.96;52.03;99345.03;1727733;81;21587;-65
2022/05/29 01:46:08;;;;;;;2.95;1.70;;;;;;;16.00;52.30;99350.97;1733467;81;21923;-66
2022/05/29 01:49:25;;;;;;;2.92;1.57;;;;;;;16.06;52.52;99357.16;1709574;81;21002;-65
2022/05/29 01:52:00;;;;;;;3.45;1.75;;;;;;;16.06;52.36;99358.00;1733564;81;21598;-64
2022/05/29 01:54:47;;;;;;;4.53;2.05;;;;;;;16.07;52.38;99361.52;1733232;81;21499;-63
2022/05/29 01:57:28;;;;;;;4.05;2.00;;;;;;;16.04;52.44;99369.69;1738359;81;21530;-66
2022/05/29 02:00:18;;;;;;;2.62;1.92;;;;;;;16.12;52.23;99368.20;1733783;81;21942;-66
2022/05/29 02:02:53;;;;;;;1.82;1.50;;;;;;;16.15;51.88;99364.48;1737712;81;21471;-65
2022/05/29 02:05:28;;;;;;;4.08;1.57;;;;;;;16.10;51.93;99360.80;1735182;81;21439;-64
2022/05/29 02:08:01;;;;;;;3.72;1.70;;;;;;;16.25;51.87;99365.51;1738394;81;21567;-64
2022/05/29 02:10:44;;;;;;;3.77;1.60;;;;;;;16.35;51.44;99371.88;1733122;81;21656;-66
2022/05/29 02:13:26;;;;;;;4.28;1.77;;;;;;;16.33;51.31;99372.47;1737905;81;21870;-65
2022/05/29 02:16:07;;;;;;;2.00;1.52;;;;;;;16.37;50.95;99372.23;1734420;80;21598;-65
2022/05/29 02:18:54;;;;;;;3.92;1.77;;;;;;;16.43;50.70;99384.59;1730634;80;21546;-64
2022/05/29 02:21:26;;;;;;;1.35;1.20;;;;;;;16.38;50.46;99372.12;1736979;81;20997;-65
2022/05/29 02:23:55;;;;;;;3.27;1.60;;;;;;;16.36;50.20;99374.05;1726929;81;21013;-64
2022/05/29 02:26:24;;;;;;;5.40;1.47;;;;;;;16.32;50.09;99376.55;1737488;80;21868;-64
2022/05/29 02:28:55;;;;;;;1.85;1.30;;;;;;;16.29;50.05;99376.75;1737768;81;21574;-65
2022/05/29 02:31:52;;;;;;;1.92;1.25;;;;;;;16.27;49.99;99380.00;1727508;81;21526;-65
2022/05/29 02:34:33;;;;;;;1.97;1.30;;;;;;;16.40;49.86;99387.94;1737132;81;21412;-65
2022/05/29 02:37:23;;;;;;;1.30;1.20;;;;;;;16.39;49.56;99379.59;1736996;81;21521;-64
2022/05/29 02:39:59;;;;;;;;;;;;;;;16.35;49.31;99376.34;1736248;81;21490;-65
2022/05/29 02:42:36;;;;;;;2.50;1.40;;;;;;;16.38;49.22;99370.80;1742394;80;20526;-66
2022/05/29 02:45:31;;;;;;;2.35;1.40;;;;;;;16.29;49.30;99395.32;1754478;80;26883;-67
2022/05/29 02:48:24;;;;;;;1.67;1.20;;;;;;;16.28;49.38;99388.34;1744230;80;20959;-65
2022/05/29 02:51:18;;;;;;;2.33;1.50;;;;;;;16.25;49.46;99380.59;1736259;80;21451;-67
2022/05/29 02:53:46;;;;;;;2.95;1.20;;;;;;;16.23;49.33;99376.70;1749645;80;22172;-65
2022/05/29 02:56:13;;;;;;;2.35;1.35;;;;;;;16.25;49.27;99369.48;1747862;80;21506;-67
2022/05/29 02:58:41;;;;;;;1.52;1.07;;;;;;;16.41;49.28;99374.57;1752879;80;20995;-65
2022/05/29 03:01:50;;;;;;;2.08;1.62;;;;;;;16.49;49.46;99386.80;1754649;80;21592;-65
2022/05/29 03:04:52;;;;;;;2.87;1.30;;;;;;;16.60;49.31;99378.08;1737520;80;21553;-63
2022/05/29 03:07:45;;;;;;;1.85;1.32;;;;;;;16.54;49.03;99389.14;1758263;80;21815;-65
2022/05/29 03:10:32;;;;;;;2.83;1.20;;;;;;;16.49;49.11;99380.17;1744880;80;21602;-65
2022/05/29 03:13:32;;;;;;;1.72;1.25;;;;;;;16.59;49.01;99367.56;1726443;80;21490;-63
2022/05/29 03:16:21;;;;;;;2.75;1.30;;;;;;;16.66;48.72;99365.69;1749964;80;21415;-64
2022/05/29 03:18:58;;;;;;;;;;;;;;;16.61;49.06;99361.18;1759508;80;21429;-65
2022/05/29 03:21:36;;;;;;;1.05;0.95;;;;;;;16.63;49.49;99350.00;1734134;80;21820;-68
2022/05/29 03:24:29;;;;;;;9.05;1.92;;;;;;;16.60;49.46;99350.70;1748169;80;21549;-65
2022/05/29 03:27:12;;;;;;;2.35;1.07;;;;;;;16.63;49.72;99345.15;1743965;81;21519;-66
2022/05/29 03:29:53;;;;;;;1.30;0.90;;;;;;;16.69;49.74;99349.55;1750777;79;21530;-65
2022/05/29 03:32:20;;;;;;;1.42;1.17;;;;;;;16.76;49.83;99343.29;1748423;80;21546;-64
2022/05/29 03:34:47;;;;;;;2.15;1.12;;;;;;;16.86;49.85;99344.85;1755286;80;21467;-65
2022/05/29 03:37:14;;;;;;;2.92;1.10;;;;;;;16.88;49.71;99359.70;1753877;80;21510;-65
2022/05/29 03:39:41;;;;;;;1.57;1.17;;;;;;;16.92;49.50;99362.48;1745738;80;21546;-63
2022/05/29 03:42:08;;;;;;;8.20;1.70;;;;;;;16.91;49.42;99370.56;1762242;79;21002;-62
2022/05/29 03:44:35;;;;;;;;;;;;;;;16.90;49.07;99375.52;1764512;79;21558;-64
2022/05/29 03:47:03;;;;;;;1.97;1.30;;;;;;;16.84;49.68;99390.09;1762822;80;21853;-64
2022/05/29 03:49:30;;;;;;;1.62;1.12;;;;;;;16.78;49.38;99390.97;1753463;79;21554;-64
2022/05/29 03:51:57;;;;;;;1.35;1.22;;;;;;;16.81;49.57;99394.25;1746648;80;21471;-63
2022/05/29 03:54:25;;;;;;;1.05;0.90;;;;;;;16.84;49.49;99394.53;1751582;80;21523;-64
2022/05/29 03:56:52;;;;;;;5.07;1.60;;;;;;;16.87;49.37;99400.47;1757368;79;21562;-64
2022/05/29 03:59:19;;;;;;;2.30;1.20;;;;;;;16.78;49.09;99398.94;1758249;80;21871;-65
2022/05/29 04:01:46;;;;;;;1.47;0.90;;;;;;;16.88;49.09;99405.33;1755634;79;21407;-65
2022/05/29 04:04:13;;;;;;;3.37;1.30;;;;;;;16.89;48.94;99409.66;1753336;79;21502;-66
2022/05/29 04:06:40;;;;;;;1.45;1.00;;;;;;;16.93;48.90;99415.11;1750913;79;21656;-66
2022/05/29 04:12:04;;;;;;;3.50;1.00;;;;;;;17.00;48.88;99419.02;1752758;79;21811;-67
2022/05/29 04:14:38;;;;;;;3.27;1.10;;;;;;;16.74;49.58;99432.36;1750911;79;21503;-65
2022/05/29 04:17:04;;;;;;;2.15;0.90;;;;;;;16.72;49.35;99430.27;1751171;79;21503;-66
2022/05/29 04:19:32;;;;;;;4.17;1.82;;;;;;;16.92;48.83;99425.38;1750046;79;21584;-66
2022/05/29 04:21:59;;;;;;;2.37;1.23;;;;;;;16.97;48.43;99427.23;1763541;79;21452;-65
2022/05/29 04:24:26;;;;;;;1.25;1.00;;;;;;;17.05;48.64;99428.84;1747013;79;21889;-66
2022/05/29 04:26:53;;;;;;;2.70;1.12;;;;;;;17.11;48.62;99429.70;1756753;79;21597;-68
2022/05/29 04:29:20;;;;;;;3.92;1.32;;;;;;;17.08;48.43;99427.75;1748522;79;21514;-68
2022/05/29 04:34:32;;;;;;;1.75;0.90;;;;;;;17.38;47.91;99426.45;1750235;79;21510;-68
2022/05/29 04:37:00;;;;;;;1.35;1.02;;;;;;;17.31;47.33;99428.73;1753516;79;21824;-65
2022/05/29 04:39:27;;;;;;;1.90;1.30;;;;;;;17.32;46.91;99424.61;1757039;79;21424;-66
2022/05/29 04:41:53;;;;;;;1.17;0.90;;;;;;;17.54;46.84;99427.47;1757744;80;21428;-66
2022/05/29 04:44:20;;;;;;;4.28;1.02;;;;;;;17.51;46.43;99431.22;1745957;80;21779;-65
2022/05/29 04:46:47;;;;;;;2.92;1.07;;;;;;;17.56;46.42;99427.73;1757713;80;21543;-66
2022/05/29 04:49:14;;;;;;;2.30;1.10;;;;;;;17.61;46.48;99432.70;1748976;80;22090;-65
2022/05/29 04:51:41;;;;;;;4.37;1.12;;;;;;;17.71;46.56;99433.72;1763386;80;21554;-65
2022/05/29 04:54:09;;;;;;;1.47;0.80;;;;;;;17.69;46.65;99436.97;1747388;80;21055;-65
2022/05/29 04:56:36;;;;;;;2.98;1.00;;;;;;;17.69;46.29;99435.64;1756574;80;21568;-65
2022/05/29 04:59:03;;;;;;;2.87;0.88;;;;;;;17.67;46.25;99439.74;1757393;80;21546;-65
2022/05/29 05:01:30;;;;;;;1.25;0.70;;;;;;;17.61;46.62;99442.00;1762372;80;21808;-66
2022/05/29 05:03:56;;;;;;;3.90;0.90;;;;;;;17.58;46.85;99447.56;1758997;80;21408;-65
2022/05/29 05:06:27;;;;;;;1.95;0.98;;;;;;;17.57;46.57;99449.84;1757243;80;21439;-66
2022/05/29 05:08:54;;;;;;;1.10;0.80;;;;;;;17.69;46.46;99451.11;1765335;80;21483;-66
2022/05/29 05:11:23;;;;;;;0.93;0.72;;;;;;;17.79;46.29;99443.77;1710164;82;21487;-65
2022/05/29 05:13:50;;;;;;;3.42;1.00;;;;;;;17.91;46.56;99445.51;1750925;79;21902;-65
2022/05/29 05:16:17;;;;;;;;;;;;;;;17.88;46.17;99451.08;1756669;80;21522;-65
2022/05/29 05:18:44;;;;;;;5.25;0.80;;;;;;;17.72;46.21;99451.34;1751690;79;20429;-66
2022/05/29 05:21:10;;;;;;;1.82;0.82;;;;;;;17.73;46.44;99446.41;1756827;79;21523;-66
2022/05/29 05:23:37;;;;;;;0.80;0.80;;;;;;;17.80;46.29;99446.77;1746525;80;20983;-67
2022/05/29 05:26:11;;;;;;;2.72;1.00;;;;;;;17.73;46.59;99445.08;1743283;79;22027;-65
2022/05/29 05:28:38;;;;;;;2.37;0.90;;;;;;;17.83;47.12;99450.05;1758682;79;21023;-66
2022/05/29 05:31:05;;;;;;;1.90;0.85;;;;;;;17.90;46.46;99459.30;1760769;79;21488;-63
2022/05/29 05:33:31;;;;;;;3.62;0.90;;;;;;;17.92;47.08;99453.02;1758640;79;21599;-59
2022/05/29 05:35:59;;;;;;;0.98;0.82;;;;;;;17.84;46.30;99446.47;1745693;79;21443;-59
2022/05/29 05:38:25;;;;;;;1.20;0.88;;;;;;;17.83;46.39;99450.54;1762977;80;21937;-59
2022/05/29 05:40:52;;;;;;;2.08;1.07;;;;;;;18.01;45.82;99457.64;1758129;80;21102;-59
2022/05/29 05:43:19;;;;;;;5.37;1.10;;;;;;;18.11;45.58;99455.95;1745190;80;21617;-59
2022/05/29 05:45:47;;;;;;;3.95;0.70;;;;;;;18.17;45.72;99456.80;1746060;80;21464;-57
2022/05/29 05:48:14;;;;;;;1.52;1.00;;;;;;;18.19;45.28;99460.19;1750784;80;21589;-58
2022/05/29 05:50:40;;;;;;;3.20;0.98;;;;;;;18.27;45.62;99457.80;1752723;80;21870;-60
2022/05/29 05:53:07;;;;;;;6.22;1.22;;;;;;;18.34;46.20;99465.30;1749627;80;21395;-60
2022/05/29 05:55:36;;;;;;;1.87;0.90;;;;;;;18.51;45.17;99461.31;1753066;80;21507;-59
2022/05/29 05:58:04;;;;;;;1.72;0.90;;;;;;;18.29;45.62;99462.52;1759360;80;21551;-59
2022/05/29 06:00:31;;;;;;;1.70;0.90;;;;;;;18.41;45.25;99455.88;1756672;80;20976;-61
2022/05/29 06:02:58;;;;;;;0.98;0.68;;;;;;;18.53;44.91;99455.39;1754089;80;21903;-59
2022/05/29 06:05:26;;;;;;;1.35;1.07;;;;;;;18.54;45.03;99457.09;1764359;80;21506;-59
2022/05/29 06:07:53;;;;;;;1.05;0.95;;;;;;;18.85;44.50;99456.84;1754640;79;21578;-61
2022/05/29 06:10:21;;;;;;;2.27;1.07;;;;;;;18.92;44.57;99461.22;1759269;79;21491;-59
2022/05/29 06:12:48;;;;;;;2.27;0.80;;;;;;;18.97;44.52;99453.21;1759459;79;21478;-60
2022/05/29 06:15:15;;;;;;;0.90;0.70;;;;;;;19.18;44.39;99451.11;1747801;80;21971;-60
2022/05/29 06:17:43;;;;;;;;;;;;;;;19.33;43.55;99449.84;1747320;80;21542;-60
2022/05/29 06:20:11;;;;;;;0.75;0.60;;;;;;;19.50;43.34;99458.28;1751992;80;21082;-60
2022/05/29 06:22:39;;;;;;;1.70;0.78;;;;;;;19.53;42.63;99455.34;1762414;80;21436;-60
2022/05/29 06:25:10;;;;;;;1.40;0.80;;;;;;;19.52;41.69;99457.16;1762858;80;21423;-60
2022/05/29 06:27:39;;;;;;;2.37;0.90;;;;;;;19.52;41.30;99460.33;1760904;80;21816;-60
2022/05/29 06:30:08;;;;;;;1.55;0.85;;;;;;;19.65;40.61;99454.33;1763545;80;21474;-60
2022/05/29 06:32:37;;;;;;;1.72;0.85;;;;;;;19.72;40.89;99454.64;1746858;80;21501;-59
2022/05/29 06:35:05;;;;;;;1.12;0.65;;;;;;;19.92;41.29;99460.52;1760071;80;21471;-60
2022/05/29 06:37:32;;;;;;;1.20;0.95;;;;;;;20.17;40.72;99462.42;1760146;80;21404;-59
2022/05/29 06:39:59;;;;;;;1.45;0.78;;;;;;;20.18;40.38;99462.30;1755483;80;21960;-60
2022/05/29 06:42:26;;;;;;;1.40;0.60;;;;;;;20.22;39.97;99465.06;1743088;80;21507;-60
2022/05/29 06:44:53;;;;;;;1.57;0.80;;;;;;;20.17;38.72;99466.43;1768385;80;21696;-61
2022/05/29 06:47:20;;;;;;;3.10;1.00;;;;;;;20.14;38.74;99464.88;1758715;80;21507;-60
2022/05/29 06:49:49;;;;;;;1.32;0.82;;;;;;;20.25;38.81;99461.30;1767770;80;21392;-61
2022/05/29 06:52:16;;;;;;;2.55;1.12;;;;;;;20.23;38.44;99460.09;1765383;80;22105;-61
2022/05/29 06:54:44;;;;;;;2.45;0.95;;;;;;;20.23;37.92;99463.26;1732886;80;21491;-60
2022/05/29 06:57:12;;;;;;;1.62;0.82;;;;;;;20.31;38.28;99463.93;1759600;80;21558;-61
2022/05/29 07:08:01;;;;;;;2.15;1.10;;;;;;;20.49;37.80;99470.32;1763143;80;21550;-60
2022/05/29 07:10:28;;;;;;;2.00;1.07;;;;;;;20.47;37.81;99471.45;1756169;80;21515;-60
2022/05/29 07:12:56;;;;;;;1.00;0.80;;;;;;;20.50;37.08;99473.36;1754810;80;21490;-60
2022/05/29 07:15:23;;;;;;;2.17;0.80;;;;;;;20.46;37.91;99475.95;1770183;80;21041;-60
2022/05/29 07:17:50;;;;;;;1.50;0.90;;;;;;;20.71;37.98;99477.84;1765296;80;21798;-61
2022/05/29 07:20:17;;;;;;;1.52;1.00;;;;;;;20.71;37.98;99477.84;1758962;80;21919;-61
2022/05/29 07:22:44;;;;;;;1.50;0.93;;;;;;;20.60;37.53;99476.94;1772461;80;21481;-61
2022/05/29 07:25:11;;;;;;;2.58;0.80;;;;;;;20.76;37.16;99475.63;1769255;80;21564;-60
2022/05/29 07:27:39;;;;;;;1.30;0.85;;;;;;;20.87;37.01;99471.98;1759126;79;21462;-61
2022/05/29 07:30:09;;;;;;;2.77;0.90;;;;;;;21.03;36.93;99479.50;1767971;79;21474;-60
2022/05/29 07:32:36;;;;;;;1.20;0.90;;;;;;;20.95;36.74;99475.67;1767599;79;21408;-60
2022/05/29 07:35:03;;;;;;;3.15;0.80;;;;;;;20.95;36.86;99481.52;1761962;80;21534;-59
2022/05/29 07:37:31;;;;;;;2.10;0.98;;;;;;;20.93;36.76;99480.31;1765503;79;21517;-60
2022/05/29 07:39:58;;;;;;;7.80;1.10;;;;;;;21.02;37.41;99473.78;1757551;80;21442;-59
2022/05/29 07:45:11;;;;;;;1.95;0.93;;;;;;;21.16;37.81;99478.75;1751694;80;21530;-60
2022/05/29 07:47:43;;;;;;;1.40;0.88;;;;;;;21.04;36.99;99476.70;1761142;80;21460;-59
2022/05/29 07:50:12;;;;;;;1.67;0.70;;;;;;;20.98;37.45;99478.09;1765652;80;21577;-59
2022/05/29 07:52:39;;;;;;;1.77;0.70;;;;;;;21.09;37.11;99486.46;1765862;80;21392;-60
2022/05/29 07:55:06;;;;;;;1.67;1.00;;;;;;;21.25;37.09;99482.41;1762143;80;21834;-61
2022/05/29 07:57:33;;;;;;;1.87;0.90;;;;;;;21.31;37.04;99476.03;1747504;80;21628;-59
2022/05/29 08:00:00;;;;;;;4.50;0.82;;;;;;;21.56;37.98;99470.66;1759192;80;21471;-59
2022/05/29 08:02:26;;;;;;;1.50;0.93;;;;;;;21.73;37.41;99468.27;1756453;80;21583;-60
2022/05/29 08:04:59;;;;;;;1.57;0.80;;;;;;;21.92;37.68;99478.11;1760000;80;21128;-59
2022/05/29 08:07:23;;;;;;;1.50;0.90;;;;;;;22.02;36.25;99482.98;1761059;80;21822;-59
2022/05/29 08:09:49;;;;;;;2.15;0.82;;;;;;;21.97;34.94;99474.02;1756596;80;21002;-60
2022/05/29 08:12:16;;;;;;;2.62;1.02;;;;;;;21.94;34.53;99489.05;1755629;80;21514;-59
2022/05/29 08:14:43;;;;;;;3.12;0.80;;;;;;;21.91;34.78;99485.30;1763372;80;21545;-59
2022/05/29 08:17:10;;;;;;;1.50;0.80;;;;;;;22.06;35.33;99497.77;1758737;80;21590;-60
2022/05/29 08:19:38;;;;;;;0.80;0.80;;;;;;;22.19;35.97;99491.25;1760448;80;21936;-60
2022/05/29 08:22:05;;;;;;;1.12;0.80;;;;;;;22.26;33.81;99491.05;1757496;80;21562;-60
2022/05/29 08:33:07;;;;;;;1.47;0.72;;;;;;;22.48;33.90;99500.09;1749510;80;21880;-60
2022/05/29 08:35:34;;;;;;;2.33;0.85;;;;;;;22.63;34.03;99500.47;1753897;80;21628;-66
2022/05/29 08:38:02;;;;;;;0.98;0.70;;;;;;;22.73;33.25;99496.41;1751019;79;21603;-60
2022/05/29 08:40:30;;;;;;;3.42;0.90;;;;;;;22.76;31.95;99500.14;1749645;79;21629;-61
2022/05/29 08:42:58;;;;;;;3.37;1.02;;;;;;;22.59;31.92;99494.22;1750927;79;21555;-61
2022/05/29 08:45:27;;;;;;;1.27;0.82;;;;;;;22.58;32.85;99496.54;1754883;79;21901;-60
2022/05/29 08:47:53;;;;;;;1.40;0.70;;;;;;;22.89;32.37;99494.45;1747262;79;21539;-60
2022/05/29 08:50:25;;;;;;;0.87;0.77;;;;;;;23.03;33.24;99485.92;1752373;79;21018;-61
2022/05/29 08:53:06;;;;;;;0.60;0.60;;;;;;;22.91;32.22;99485.25;1748106;79;22006;-61
2022/05/29 08:55:59;;;;;;;1.90;0.70;;;;;;;22.90;32.91;99492.94;1747630;79;21082;-60
2022/05/29 08:58:50;;;;;;;2.67;0.75;;;;;;;22.93;31.72;99488.63;1747318;79;22154;-60
2022/05/29 09:01:38;;;;;;;0.95;0.68;;;;;;;22.79;32.20;99494.47;1757644;79;21432;-58
2022/05/29 09:04:08;;;;;;;2.05;0.90;;;;;;;22.73;32.80;99499.95;1750764;80;20974;-58
2022/05/29 09:06:41;;;;;;;0.75;0.70;;;;;;;22.83;32.17;99488.31;1750665;79;21058;-58
2022/05/29 09:09:43;;;;;;;1.12;0.70;;;;;;;22.58;32.47;99487.16;1756980;79;21756;-57
2022/05/29 09:12:14;;;;;;;1.12;0.80;;;;;;;22.77;32.52;99488.41;1753678;80;21772;-59
2022/05/29 09:14:52;;;;;;;0.90;0.80;;;;;;;22.93;32.53;99482.43;1744988;80;21573;-59
2022/05/29 09:17:31;;;;;;;1.75;1.10;;;;;;;23.06;33.05;99482.12;1753685;80;21495;-59
2022/05/29 09:20:09;;;;;;;1.72;0.95;;;;;;;23.33;33.08;99484.75;1759105;80;21423;-60
2022/05/29 09:22:44;;;;;;;4.83;0.90;;;;;;;23.24;31.83;99480.80;1754166;80;20970;-60
2022/05/29 09:25:23;;;;;;;1.32;0.70;;;;;;;23.35;31.86;99477.89;1753402;80;21963;-60
2022/05/29 09:27:50;;;;;;;1.12;0.80;;;;;;;23.30;32.06;99487.75;1753485;80;21472;-61
2022/05/29 09:30:17;;;;;;;0.82;0.80;;;;;;;23.43;32.26;99489.20;1751996;80;21420;-61
2022/05/29 09:32:57;;;;;;;2.17;0.82;;;;;;;23.44;31.65;99494.93;1747875;80;21571;-61
2022/05/29 09:35:29;;;;;;;1.30;0.70;;;;;;;23.47;30.94;99487.42;1757549;80;21091;-62
2022/05/29 09:38:21;;;;;;;3.72;0.80;;;;;;;23.43;31.23;99494.57;1753717;80;21905;-62
2022/05/29 09:40:58;;;;;;;1.20;0.68;;;;;;;23.57;31.10;99481.98;1743832;80;21072;-62
2022/05/29 09:43:27;;;;;;;2.83;0.88;;;;;;;23.84;31.28;99483.75;1743842;80;21539;-61
2022/05/29 09:45:53;;;;;;;4.35;0.75;;;;;;;23.68;30.66;99481.75;1732990;80;21541;-61
2022/05/29 09:51:28;;;;;;;2.15;0.93;;;;;;;23.58;31.06;99478.78;1600442;88;21807;-60
2022/05/29 09:54:01;;;;;;;3.33;0.57;;;;;;;23.83;32.16;99483.93;1599652;89;21566;-60
2022/05/29 09:56:32;;;;;;;1.47;0.90;;;;;;;24.10;31.60;99477.08;1600512;89;21446;-60
2022/05/29 09:59:06;;;;;;;1.37;0.70;;;;;;;24.32;31.04;99473.55;1599210;88;21568;-62
2022/05/29 10:01:38;;;;;;;4.50;0.90;;;;;;;24.53;30.79;99481.77;1575824;89;21080;-62
2022/05/29 10:04:08;;;;;;;1.22;0.55;;;;;;;24.53;30.79;99481.77;1599966;89;21850;-61
2022/05/29 10:06:42;;;;;;;3.50;0.90;;;;;;;24.61;31.44;99487.17;1599926;89;21553;-61
2022/05/29 10:09:20;;;;;;;3.27;0.90;;;;;;;24.53;30.07;99485.80;1556195;90;21573;-61
2022/05/29 10:11:52;;;;;;;1.17;0.82;;;;;;;24.24;30.46;99481.05;1552961;91;21569;-62
2022/05/29 10:14:40;;;;;;;1.85;0.85;;;;;;;24.32;30.52;99480.27;1549208;91;21454;-62
2022/05/29 10:17:31;;;;;;;1.37;0.80;;;;;;;24.40;30.54;99476.27;1563657;91;21850;-61
2022/05/29 10:19:58;;;;;;;1.37;0.78;;;;;;;24.54;29.97;99481.58;1555030;91;21506;-63
2022/05/29 10:22:37;;;;;;;2.52;1.00;;;;;;;24.71;30.31;99487.05;1554994;91;21482;-62
2022/05/29 10:25:24;;;;;;;2.08;0.80;;;;;;;24.75;29.18;99486.58;1554745;91;21566;-58
2022/05/29 10:27:54;;;;;;;2.60;0.90;;;;;;;24.78;29.06;99483.55;1555823;91;21466;-63
2022/05/29 10:30:32;;;;;;;1.05;0.70;;;;;;;24.63;28.41;99487.34;1555487;91;21969;-61
2022/05/29 10:33:06;;;;;;;0.68;0.65;;;;;;;24.70;29.17;99488.91;1555394;90;21522;-63
2022/05/29 10:35:37;;;;;;;2.80;0.70;;;;;;;24.92;28.52;99481.25;1555212;91;21553;-60
2022/05/29 10:38:24;;;;;;;1.35;0.85;;;;;;;25.16;28.44;99478.64;1554383;91;21513;-62
2022/05/29 10:40:58;;;;;;;1.00;0.70;;;;;;;25.12;27.36;99481.84;1553127;91;21499;-63
2022/05/29 10:43:51;;;;;;;2.20;0.75;;;;;;;25.18;27.90;99478.48;1559563;90;21958;-59
2022/05/29 10:46:29;;;;;;;2.08;0.80;;;;;;;25.14;28.38;99479.31;1557689;90;22320;-60
2022/05/29 10:52:38;;;;;;;0.95;0.80;;;;;;;25.06;28.13;99478.78;1554806;90;21624;-60
2022/05/29 10:58:42;;;;;;;1.60;0.70;;;;;;;23.64;31.07;99476.83;1797901;79;23096;-60
2022/05/29 11:04:29;;;;;;;1.92;0.78;;;;;;;24.70;28.73;99480.84;1759278;79;21916;-59
2022/05/29 11:07:19;;;;;;;0.85;0.60;;;;;;;24.69;27.81;99469.73;1766735;79;21430;-60
2022/05/29 11:10:20;;;;;;;1.77;1.00;;;;;;;24.81;27.55;99474.34;1757213;80;21044;-59
2022/05/29 11:13:12;;;;;;;1.75;0.70;;;;;;;25.03;27.29;99460.78;1750524;80;21588;-58
2022/05/29 11:15:57;;;;;;;0.88;0.70;;;;;;;25.19;27.47;99466.22;1756159;80;21501;-58
2022/05/29 11:18:46;;;;;;;1.12;0.53;;;;;;;25.27;27.59;99460.05;1763518;79;21547;-57
2022/05/29 11:21:52;;;;;;;1.27;0.57;;;;;;;25.22;27.68;99468.59;1760408;79;21545;-57
2022/05/29 11:24:39;;;;;;;0.90;0.70;;;;;;;25.30;27.57;99462.91;1705237;82;21551;-58
2022/05/29 11:27:23;;;;;;;1.75;0.70;;;;;;;25.52;27.11;99454.70;1748370;80;21487;-57
2022/05/29 11:30:18;;;;;;;0.80;0.80;;;;;;;25.30;26.87;99460.21;1763798;80;21459;-60
2022/05/29 11:33:13;;;;;;;2.72;0.75;;;;;;;25.42;26.62;99460.25;1768677;79;22047;-58
2022/05/29 11:36:12;;;;;;;3.95;0.60;;;;;;;25.49;26.87;99460.44;1773234;79;21518;-57
2022/05/29 11:39:05;;;;;;;1.17;0.70;;;;;;;25.53;26.97;99461.27;1767837;80;21471;-58
2022/05/29 11:41:52;;;;;;;2.12;0.70;;;;;;;25.63;26.74;99459.77;1768806;79;21073;-58
2022/05/29 11:44:25;;;;;;;1.17;0.62;;;;;;;25.78;26.41;99462.63;1754416;80;21529;-57
2022/05/29 11:53:07;;;;;;;2.92;0.75;;;;;;;25.81;26.66;99460.44;1760144;79;20958;-59
2022/05/29 11:55:37;;;;;;;1.05;0.55;;;;;;;25.81;26.66;99460.44;1765161;79;21508;-59
2022/05/29 11:58:30;;;;;;;0.82;0.75;;;;;;;25.84;25.89;99461.95;1741399;80;20955;-59
2022/05/29 12:01:03;;;;;;;1.35;0.70;;;;;;;25.84;25.89;99461.95;1753911;80;21851;-59
2022/05/29 12:03:57;;;;;;;0.93;0.68;;;;;;;25.69;26.29;99454.21;1750048;80;21550;-57
2022/05/29 12:06:42;;;;;;;1.77;0.80;;;;;;;25.84;26.42;99448.00;1749821;81;21460;-58
2022/05/29 12:09:48;;;;;;;1.10;0.70;;;;;;;26.00;26.42;99443.13;1750397;80;21558;-58
2022/05/29 12:12:27;;;;;;;1.72;0.70;;;;;;;26.00;26.42;99443.13;1748111;80;21641;-59
2022/05/29 12:15:02;;;;;;;2.37;0.90;;;;;;;26.49;26.56;99446.73;1748726;80;22096;-59
2022/05/29 12:17:38;;;;;;;1.25;0.78;;;;;;;26.68;25.66;99457.66;1748112;80;21045;-59
2022/05/29 12:20:22;;;;;;;1.20;0.60;;;;;;;26.31;25.41;99450.98;1740795;80;21491;-59
2022/05/29 12:23:01;;;;;;;1.55;0.53;;;;;;;26.05;25.91;99453.89;1736656;80;21546;-59
2022/05/29 12:25:51;;;;;;;2.30;0.72;;;;;;;26.01;26.10;99447.52;1743692;80;21649;-59
2022/05/29 12:28:50;;;;;;;1.45;0.65;;;;;;;25.83;25.04;99447.66;1744460;80;21809;-59
2022/05/29 12:31:37;;;;;;;3.25;0.70;;;;;;;25.83;25.04;99447.66;1744621;79;21022;-59
2022/05/29 12:34:05;;;;;;;;;;;;;;;25.60;25.89;99459.60;1749783;80;21546;-58
2022/05/29 12:36:38;;;;;;;;;;;;;;;25.55;26.20;99454.38;1753398;79;20519;-59
2022/05/29 12:39:39;;;;;;;3.75;0.72;;;;;;;25.59;25.52;99449.83;1747630;79;20170;-59
2022/05/29 12:42:37;;;;;;;0.55;0.50;;;;;;;25.55;25.33;99451.69;1746912;80;22014;-59
2022/05/29 12:45:27;;;;;;;1.00;0.70;;;;;;;25.67;25.31;99450.34;1746674;79;21613;-58
2022/05/29 12:48:15;;;;;;;0.72;0.72;;;;;;;25.63;25.52;99455.21;1751819;79;21432;-59
2022/05/29 12:51:28;;;;;;;1.07;0.80;;;;;;;25.63;25.52;99455.21;1753992;79;21510;-62
2022/05/29 12:54:46;;;;;;;2.72;0.82;;;;;;;25.90;25.79;99439.75;1751748;80;21494;-59
2022/05/29 12:57:48;;;;;;;2.98;0.80;;;;;;;25.90;25.79;99439.75;1754997;79;21794;-59
2022/05/29 13:00:41;;;;;;;3.80;0.78;;;;;;;26.23;25.45;99441.91;1754533;79;21499;-59